createdAt,value
2018-09-22T00:01:07.276Z,1.60
2018-09-22T00:03:36.500Z,1.60
2018-09-22T00:06:05.762Z,1.50
2018-09-22T00:08:35.275Z,1.37
2018-09-22T00:11:04.523Z,1.70
2018-09-22T00:13:33.788Z,1.73
2018-09-22T00:16:04.260Z,1.60
2018-09-22T00:18:33.529Z,1.50
2018-09-22T00:21:02.815Z,1.80
2018-09-22T00:23:32.122Z,1.70
2018-09-22T00:26:01.355Z,1.50
2018-09-22T00:28:30.594Z,1.70
2018-09-22T00:30:59.829Z,1.50
2018-09-22T00:33:29.118Z,1.65
2018-09-22T00:35:58.349Z,1.57
2018-09-22T00:38:27.646Z,1.67
2018-09-22T00:40:56.876Z,2.03
2018-09-22T00:43:26.122Z,1.60
2018-09-22T00:45:55.357Z,1.60
2018-09-22T00:48:24.623Z,1.60
2018-09-22T00:50:53.851Z,1.70
2018-09-22T00:53:23.099Z,1.87
2018-09-22T00:55:52.366Z,1.40
2018-09-22T00:58:21.628Z,1.70
2018-09-22T01:00:50.966Z,1.90
2018-09-22T01:03:20.215Z,1.67
2018-09-22T01:05:49.470Z,1.60
2018-09-22T01:08:18.723Z,1.63
2018-09-22T01:10:48.025Z,1.60
2018-09-22T01:13:17.242Z,1.60
2018-09-22T01:15:46.502Z,1.80
2018-09-22T01:18:15.735Z,1.47
2018-09-22T01:20:44.991Z,1.70
2018-09-22T01:23:14.247Z,1.90
2018-09-22T01:25:43.584Z,1.70
2018-09-22T01:28:12.846Z,1.43
2018-09-22T01:30:42.194Z,1.67
2018-09-22T01:33:11.714Z,1.50
2018-09-22T01:35:40.979Z,1.70
2018-09-22T01:38:10.291Z,1.70
2018-09-22T01:40:39.526Z,1.67
2018-09-22T01:43:09.072Z,1.70
2018-09-22T01:45:38.311Z,1.80
2018-09-22T01:48:07.533Z,1.50
2018-09-22T01:50:36.768Z,1.60
2018-09-22T01:53:06.042Z,1.60
2018-09-22T01:55:35.286Z,1.90
2018-09-22T01:58:04.506Z,1.63
2018-09-22T02:00:33.715Z,1.65
2018-09-22T02:03:02.961Z,1.90
2018-09-22T02:05:32.183Z,1.93
2018-09-22T02:08:01.434Z,1.60
2018-09-22T02:10:30.673Z,1.57
2018-09-22T02:12:59.899Z,1.47
2018-09-22T02:15:29.143Z,1.60
2018-09-22T02:17:58.589Z,1.70
2018-09-22T02:20:27.806Z,1.20
2018-09-22T02:22:57.043Z,1.60
2018-09-22T02:25:26.498Z,1.60
2018-09-22T02:27:55.771Z,1.50
2018-09-22T02:30:24.986Z,1.60
2018-09-22T02:32:54.459Z,1.67
2018-09-22T02:35:23.671Z,1.43
2018-09-22T02:37:52.894Z,1.83
2018-09-22T02:40:22.141Z,1.90
2018-09-22T02:42:51.392Z,1.37
2018-09-22T02:45:20.670Z,1.53
2018-09-22T02:47:49.947Z,1.50
2018-09-22T02:50:19.174Z,1.60
2018-09-22T02:52:48.395Z,1.30
2018-09-22T02:55:17.631Z,1.53
2018-09-22T02:57:46.885Z,1.60
2018-09-22T03:00:16.138Z,1.60
2018-09-22T03:02:45.387Z,1.43
2018-09-22T03:05:14.652Z,1.60
2018-09-22T03:07:43.859Z,1.93
2018-09-22T03:10:13.118Z,1.50
2018-09-22T03:12:42.336Z,1.60
2018-09-22T03:15:11.588Z,1.80
2018-09-22T03:17:40.826Z,1.47
2018-09-22T03:20:10.108Z,1.57
2018-09-22T03:22:39.339Z,1.80
2018-09-22T03:25:08.678Z,1.83
2018-09-22T03:27:37.866Z,1.40
2018-09-22T03:30:07.096Z,1.57
2018-09-22T03:32:36.351Z,1.60
2018-09-22T03:35:05.585Z,1.70
2018-09-22T03:37:34.799Z,1.73
2018-09-22T03:40:04.106Z,1.23
2018-09-22T03:42:33.378Z,1.70
2018-09-22T03:45:02.629Z,1.50
2018-09-22T03:47:31.877Z,1.60
2018-09-22T03:50:01.115Z,1.43
2018-09-22T03:52:30.337Z,1.47
2018-09-22T03:54:59.542Z,1.70
2018-09-22T03:57:28.814Z,1.40
2018-09-22T03:59:58.031Z,1.70
2018-09-22T04:02:27.262Z,1.27
2018-09-22T04:04:56.511Z,1.33
2018-09-22T04:07:25.731Z,1.50
2018-09-22T04:09:54.962Z,1.60
2018-09-22T04:12:24.351Z,1.60
2018-09-22T04:19:51.623Z,1.67
2018-09-22T04:22:20.883Z,1.63
2018-09-22T04:24:50.102Z,1.40
2018-09-22T04:27:19.351Z,1.80
2018-09-22T04:29:48.638Z,1.60
2018-09-22T04:32:17.883Z,1.60
2018-09-22T04:34:47.139Z,2.23
2018-09-22T04:37:17.590Z,1.37
2018-09-22T04:39:46.822Z,1.60
2018-09-22T04:42:16.066Z,1.87
2018-09-22T04:44:45.325Z,1.67
2018-09-22T04:47:14.550Z,1.53
2018-09-22T04:49:43.787Z,1.60
2018-09-22T04:52:13.003Z,1.80
2018-09-22T04:54:42.242Z,1.57
2018-09-22T04:57:11.492Z,1.50
2018-09-22T04:59:40.718Z,1.83
2018-09-22T05:02:10.203Z,1.50
2018-09-22T05:04:39.603Z,1.63
2018-09-22T05:07:09.074Z,1.40
2018-09-22T05:09:38.353Z,1.70
2018-09-22T05:12:07.566Z,2.00
2018-09-22T05:14:36.839Z,1.77
2018-09-22T05:17:06.173Z,1.60
2018-09-22T05:19:35.331Z,1.80
2018-09-22T05:22:04.592Z,2.12
2018-09-22T05:24:33.827Z,1.80
2018-09-22T05:27:03.083Z,1.63
2018-09-22T05:29:32.300Z,2.10
2018-09-22T05:32:01.523Z,1.80
2018-09-22T05:34:30.822Z,1.90
2018-09-22T05:37:00.051Z,2.03
2018-09-22T05:39:29.297Z,1.53
2018-09-22T05:41:58.668Z,1.70
2018-09-22T05:44:27.872Z,1.65
2018-09-22T05:46:57.111Z,1.80
2018-09-22T05:49:26.369Z,1.63
2018-09-22T05:51:55.578Z,1.80
2018-09-22T05:54:24.822Z,2.00
2018-09-22T05:56:54.595Z,1.87
2018-09-22T05:59:23.787Z,2.03
2018-09-22T06:01:53.015Z,2.10
2018-09-22T06:04:22.239Z,1.90
2018-09-22T06:06:51.734Z,2.10
2018-09-22T06:09:20.970Z,1.80
2018-09-22T06:11:50.182Z,2.00
2018-09-22T06:14:19.462Z,1.90
2018-09-22T06:16:48.713Z,1.90
2018-09-22T06:19:17.923Z,2.10
2018-09-22T06:21:47.162Z,2.03
2018-09-22T06:24:16.438Z,1.87
2018-09-22T06:26:45.659Z,1.90
2018-09-22T06:29:14.923Z,1.83
2018-09-22T06:31:44.298Z,2.00
2018-09-22T06:34:13.519Z,2.10
2018-09-22T06:36:42.751Z,1.87
2018-09-22T06:39:12.542Z,1.60
2018-09-22T06:41:41.782Z,2.00
2018-09-22T06:44:11.287Z,2.13
2018-09-22T06:46:40.507Z,1.80
2018-09-22T06:49:09.747Z,1.80
2018-09-22T06:51:38.987Z,1.43
2018-09-22T06:54:08.227Z,1.50
2018-09-22T06:56:37.435Z,1.77
2018-09-22T06:59:06.663Z,1.57
2018-09-22T07:01:35.896Z,1.83
2018-09-22T07:04:05.139Z,1.60
2018-09-22T07:06:34.363Z,1.87
2018-09-22T07:09:03.672Z,1.70
2018-09-22T07:11:32.916Z,1.30
2018-09-22T07:14:03.499Z,1.70
2018-09-22T07:16:32.707Z,1.50
2018-09-22T07:19:01.942Z,1.97
2018-09-22T07:21:36.414Z,1.93
2018-09-22T07:24:05.670Z,1.33
2018-09-22T07:26:34.931Z,1.50
2018-09-22T07:29:04.171Z,1.50
2018-09-22T07:31:33.401Z,1.70
2018-09-22T07:34:02.638Z,1.73
2018-09-22T07:36:31.951Z,1.70
2018-09-22T07:39:01.163Z,1.70
2018-09-22T07:41:30.446Z,1.67
2018-09-22T07:43:59.706Z,1.90
2018-09-22T07:46:28.967Z,1.70
2018-09-22T07:48:58.218Z,1.53
2018-09-22T07:51:27.449Z,1.40
2018-09-22T07:53:56.667Z,1.60
2018-09-22T07:56:25.896Z,1.50
2018-09-22T07:58:55.302Z,1.50
2018-09-22T08:01:25.062Z,1.87
2018-09-22T08:03:54.388Z,1.87
2018-09-22T08:06:23.865Z,1.60
2018-09-22T08:08:53.506Z,1.20
2018-09-22T08:11:22.861Z,1.33
2018-09-22T08:13:52.083Z,1.40
2018-09-22T08:16:21.370Z,1.70
2018-09-22T08:18:50.731Z,1.50
2018-09-22T08:21:19.947Z,1.43
2018-09-22T08:23:49.188Z,1.43
2018-09-22T08:26:18.444Z,1.50
2018-09-22T08:28:47.684Z,1.40
2018-09-22T08:31:16.922Z,1.67
2018-09-22T08:33:46.130Z,1.30
2018-09-22T08:36:15.510Z,1.50
2018-09-22T08:38:44.575Z,1.23
2018-09-22T08:41:13.806Z,1.23
2018-09-22T08:43:43.068Z,1.57
2018-09-22T08:46:12.311Z,1.83
2018-09-22T08:48:41.586Z,1.40
2018-09-22T08:51:10.852Z,1.30
2018-09-22T08:53:40.066Z,1.20
2018-09-22T08:56:09.294Z,1.30
2018-09-22T08:58:38.646Z,1.37
2018-09-22T09:01:07.855Z,1.33
2018-09-22T09:03:37.086Z,1.20
2018-09-22T09:06:06.334Z,1.20
2018-09-22T09:08:35.589Z,1.40
2018-09-22T09:11:04.802Z,1.20
2018-09-22T09:13:34.110Z,1.60
2018-09-22T09:16:04.547Z,1.40
2018-09-22T09:18:33.850Z,1.37
2018-09-22T09:21:03.090Z,1.47
2018-09-22T09:23:32.313Z,1.40
2018-09-22T09:26:01.570Z,1.50
2018-09-22T09:28:30.863Z,1.40
2018-09-22T09:31:00.114Z,1.62
2018-09-22T09:33:29.562Z,1.40
2018-09-22T09:35:58.778Z,1.30
2018-09-22T09:38:28.007Z,1.37
2018-09-22T09:40:57.372Z,1.27
2018-09-22T09:43:26.776Z,1.22
2018-09-22T09:45:55.843Z,1.33
2018-09-22T09:48:25.054Z,1.47
2018-09-22T09:50:54.295Z,1.42
2018-09-22T09:53:23.543Z,1.75
2018-09-22T09:55:52.774Z,1.40
2018-09-22T09:58:22.079Z,1.53
2018-09-22T10:00:51.306Z,1.50
2018-09-22T10:03:20.643Z,1.47
2018-09-22T10:05:49.889Z,1.72
2018-09-22T10:08:19.126Z,1.50
2018-09-22T10:10:48.342Z,1.30
2018-09-22T10:13:17.565Z,1.60
2018-09-22T10:15:46.827Z,1.65
2018-09-22T10:18:16.055Z,1.40
2018-09-22T10:20:45.290Z,1.73
2018-09-22T10:23:14.880Z,1.45
2018-09-22T10:25:44.110Z,1.35
2018-09-22T10:28:13.335Z,1.50
2018-09-22T10:30:42.678Z,1.40
2018-09-22T10:33:11.891Z,1.70
2018-09-22T10:35:41.115Z,1.60
2018-09-22T10:38:10.334Z,1.67
2018-09-22T10:40:39.564Z,1.55
2018-09-22T10:43:09.013Z,1.82
2018-09-22T10:45:38.258Z,1.80
2018-09-22T10:48:07.465Z,1.40
2018-09-22T10:50:36.719Z,1.67
2018-09-22T10:53:05.997Z,1.70
2018-09-22T10:55:35.175Z,1.50
2018-09-22T10:58:04.418Z,1.47
2018-09-22T11:00:33.638Z,1.10
2018-09-22T11:03:02.887Z,1.60
2018-09-22T11:05:32.142Z,1.52
2018-09-22T11:08:01.543Z,1.83
2018-09-22T11:10:30.758Z,1.40
2018-09-22T11:13:00.043Z,1.50
2018-09-22T11:15:30.754Z,1.32
2018-09-22T11:17:59.967Z,1.47
2018-09-22T11:20:29.207Z,1.50
2018-09-22T11:22:58.461Z,1.60
2018-09-22T11:25:27.693Z,2.05
2018-09-22T11:27:56.910Z,1.20
2018-09-22T11:30:26.143Z,1.55
2018-09-22T11:32:55.376Z,1.35
2018-09-22T11:35:24.815Z,1.53
2018-09-22T11:37:54.043Z,1.80
2018-09-22T11:40:23.259Z,1.70
2018-09-22T11:42:52.499Z,1.60
2018-09-22T11:45:21.727Z,1.50
2018-09-22T11:47:50.940Z,1.30
2018-09-22T11:50:20.186Z,1.30
2018-09-22T11:52:49.406Z,1.77
2018-09-22T11:55:18.645Z,1.65
2018-09-22T11:57:47.855Z,1.50
2018-09-22T12:00:17.271Z,1.60
2018-09-22T12:02:46.510Z,1.47
2018-09-22T12:05:15.739Z,1.40
2018-09-22T12:07:44.943Z,1.75
2018-09-22T12:10:14.178Z,1.57
2018-09-22T12:12:43.425Z,1.40
2018-09-22T12:15:12.626Z,1.37
2018-09-22T12:17:41.858Z,1.90
2018-09-22T12:20:11.091Z,1.57
2018-09-22T12:22:40.304Z,1.43
2018-09-22T12:25:09.518Z,1.60
2018-09-22T12:27:39.995Z,1.60
2018-09-22T12:30:09.307Z,1.32
2018-09-22T12:32:38.539Z,1.80
2018-09-22T12:35:07.758Z,1.63
2018-09-22T12:37:36.969Z,1.60
2018-09-22T12:40:06.302Z,1.42
2018-09-22T12:42:35.555Z,1.82
2018-09-22T12:45:04.806Z,1.60
2018-09-22T12:47:34.030Z,1.87
2018-09-22T12:50:03.274Z,1.57
2018-09-22T12:52:32.486Z,1.42
2018-09-22T12:55:01.743Z,1.70
2018-09-22T12:57:31.075Z,1.62
2018-09-22T13:00:00.308Z,1.50
2018-09-22T13:02:29.568Z,1.75
2018-09-22T13:04:58.924Z,1.80
2018-09-22T13:07:28.174Z,1.72
2018-09-22T13:09:57.454Z,1.97
2018-09-22T13:12:26.752Z,1.47
2018-09-22T13:14:55.999Z,1.30
2018-09-22T13:17:25.258Z,1.50
2018-09-22T13:19:54.505Z,1.50
2018-09-22T13:22:23.808Z,1.70
2018-09-22T13:24:53.107Z,1.42
2018-09-22T13:27:22.354Z,1.30
2018-09-22T13:29:51.598Z,1.50
2018-09-22T13:32:20.990Z,1.80
2018-09-22T13:34:50.236Z,1.80
2018-09-22T13:37:19.586Z,1.60
2018-09-22T13:39:48.710Z,1.40
2018-09-22T13:42:17.936Z,1.32
2018-09-22T13:44:47.184Z,1.73
2018-09-22T13:47:16.420Z,1.67
2018-09-22T13:49:45.633Z,1.40
2018-09-22T13:52:14.958Z,1.80
2018-09-22T13:54:44.230Z,1.50
2018-09-22T13:57:13.470Z,1.70
2018-09-22T13:59:42.707Z,1.47
2018-09-22T14:02:11.949Z,1.47
2018-09-22T14:04:41.242Z,1.57
2018-09-22T14:07:10.483Z,1.30
2018-09-22T14:09:39.779Z,1.60
2018-09-22T14:12:08.998Z,1.67
2018-09-22T14:14:38.238Z,1.40
2018-09-22T14:17:07.496Z,1.75
2018-09-22T14:19:36.722Z,1.40
2018-09-22T14:22:05.984Z,1.80
2018-09-22T14:24:35.202Z,1.23
2018-09-22T14:27:04.482Z,1.22
2018-09-22T14:29:33.692Z,1.30
2018-09-22T14:32:03.118Z,1.50
2018-09-22T14:34:32.362Z,1.52
2018-09-22T14:37:01.579Z,1.50
2018-09-22T14:39:30.807Z,1.37
2018-09-22T14:42:00.027Z,1.35
2018-09-22T14:44:29.258Z,1.50
2018-09-22T14:46:58.482Z,1.60
2018-09-22T14:49:27.691Z,1.60
2018-09-22T14:51:56.935Z,1.90
2018-09-22T14:54:26.163Z,1.67
2018-09-22T14:56:55.409Z,1.77
2018-09-22T14:59:24.627Z,1.60
2018-09-22T15:01:53.884Z,1.50
2018-09-22T15:04:23.112Z,1.63
2018-09-22T15:06:52.547Z,1.20
2018-09-22T15:09:21.789Z,1.85
2018-09-22T15:11:51.006Z,1.60
2018-09-22T15:14:20.274Z,1.90
2018-09-22T15:16:49.502Z,1.50
2018-09-22T15:19:18.755Z,1.50
2018-09-22T15:21:47.975Z,10.40
2018-09-22T15:24:17.199Z,3.60
2018-09-22T15:26:46.412Z,1.83
2018-09-22T15:29:15.774Z,1.40
2018-09-22T15:31:44.992Z,1.50
2018-09-22T15:34:14.225Z,1.40
2018-09-22T15:36:44.700Z,1.67
2018-09-22T15:39:13.908Z,1.40
2018-09-22T15:41:43.147Z,1.67
2018-09-22T15:44:12.418Z,1.70
2018-09-22T15:46:41.651Z,1.40
2018-09-22T15:49:10.904Z,1.80
2018-09-22T15:51:40.155Z,1.63
2018-09-22T15:54:09.383Z,1.30
2018-09-22T15:56:38.634Z,1.63
2018-09-22T15:59:07.856Z,1.60
2018-09-22T16:01:37.087Z,1.57
2018-09-22T16:04:06.323Z,1.70
2018-09-22T16:06:35.539Z,1.60
2018-09-22T16:09:06.644Z,1.70
2018-09-22T16:11:35.823Z,1.80
2018-09-22T16:14:05.058Z,1.60
2018-09-22T16:16:34.278Z,2.60
2018-09-22T16:19:03.586Z,2.77
2018-09-22T16:21:32.920Z,2.17
2018-09-22T16:24:02.158Z,1.77
2018-09-22T16:26:31.415Z,1.67
2018-09-22T16:29:01.386Z,1.63
2018-09-22T16:31:30.606Z,1.53
2018-09-22T16:33:59.842Z,1.83
2018-09-22T16:36:29.090Z,1.40
2018-09-22T16:38:58.303Z,1.50
2018-09-22T16:41:27.518Z,1.60
2018-09-22T16:43:56.764Z,1.43
2018-09-22T16:46:26.002Z,1.63
2018-09-22T16:48:55.270Z,1.50
2018-09-22T16:51:24.480Z,1.50
2018-09-22T16:53:53.714Z,1.30
2018-09-22T16:56:23.324Z,1.50
2018-09-22T16:58:52.575Z,1.40
2018-09-22T17:01:21.799Z,1.50
2018-09-22T17:03:51.030Z,1.50
2018-09-22T17:06:20.343Z,1.27
2018-09-22T17:08:49.558Z,1.50
2018-09-22T17:11:18.790Z,1.40
2018-09-22T17:13:48.040Z,1.30
2018-09-22T17:16:17.370Z,1.60
2018-09-22T17:18:46.610Z,1.40
2018-09-22T17:21:16.055Z,1.40
2018-09-22T17:23:45.304Z,1.57
2018-09-22T17:26:14.515Z,1.50
2018-09-22T17:28:43.766Z,1.70
2018-09-22T17:31:12.962Z,1.50
2018-09-22T17:33:42.213Z,1.60
2018-09-22T17:36:11.443Z,1.50
2018-09-22T17:38:40.661Z,1.40
2018-09-22T17:41:09.906Z,1.70
2018-09-22T17:43:39.158Z,1.33
2018-09-22T17:46:08.402Z,1.40
2018-09-22T17:48:37.630Z,1.80
2018-09-22T17:51:08.308Z,1.43
2018-09-22T17:53:37.540Z,1.40
2018-09-22T17:56:06.824Z,1.50
2018-09-22T17:58:36.102Z,1.60
2018-09-22T18:01:05.370Z,1.32
2018-09-22T18:03:34.590Z,1.43
2018-09-22T18:06:03.845Z,1.50
2018-09-22T18:08:33.071Z,1.37
2018-09-22T18:11:02.296Z,1.53
2018-09-22T18:13:31.555Z,1.57
2018-09-22T18:16:00.784Z,1.40
2018-09-22T18:18:30.050Z,1.57
2018-09-22T18:20:59.258Z,1.60
2018-09-22T18:23:28.482Z,1.60
2018-09-22T18:25:57.714Z,2.30
2018-09-22T18:28:26.988Z,1.93
2018-09-22T18:30:56.203Z,2.10
2018-09-22T18:33:25.434Z,2.30
2018-09-22T18:35:54.674Z,2.30
2018-09-22T18:38:23.921Z,1.53
2018-09-22T18:40:53.155Z,1.83
2018-09-22T18:43:22.396Z,1.50
2018-09-22T18:45:51.681Z,1.83
2018-09-22T18:48:20.911Z,2.43
2018-09-22T18:50:50.170Z,1.83
2018-09-22T18:53:19.412Z,1.77
2018-09-22T18:55:48.673Z,2.00
2018-09-22T18:58:17.894Z,2.00
2018-09-22T19:00:47.122Z,2.20
2018-09-22T19:03:16.342Z,2.10
2018-09-22T19:05:45.560Z,2.30
2018-09-22T19:08:14.816Z,2.20
2018-09-22T19:10:44.031Z,1.87
2018-09-22T19:13:15.911Z,2.37
2018-09-22T19:15:48.309Z,2.30
2018-09-22T19:18:21.624Z,2.47
2018-09-22T19:20:56.202Z,2.40
2018-09-22T19:23:28.871Z,2.00
2018-09-22T19:26:01.906Z,2.20
2018-09-22T19:28:34.615Z,1.93
2018-09-22T19:31:07.171Z,2.37
2018-09-22T19:33:39.126Z,2.23
2018-09-22T19:36:13.896Z,2.50
2018-09-22T19:39:04.735Z,2.30
2018-09-22T19:43:40.059Z,2.47
2018-09-22T19:46:19.219Z,2.20
2018-09-22T19:48:55.143Z,2.27
2018-09-22T19:51:26.035Z,2.50
2018-09-22T19:53:56.310Z,1.97
2018-09-22T19:56:25.621Z,2.07
2018-09-22T19:58:54.974Z,2.70
2018-09-22T20:01:24.191Z,2.20
2018-09-22T20:03:53.407Z,2.40
2018-09-22T20:06:22.663Z,2.10
2018-09-22T20:08:51.906Z,2.60
2018-09-22T20:11:21.339Z,2.30
2018-09-22T20:13:50.554Z,2.43
2018-09-22T20:16:19.783Z,2.33
2018-09-22T20:18:49.000Z,2.10
2018-09-22T20:21:18.254Z,2.40
2018-09-22T20:23:47.534Z,2.20
2018-09-22T20:26:16.748Z,2.27
2018-09-22T20:28:46.979Z,2.30
2018-09-22T20:31:16.206Z,2.73
2018-09-22T20:33:45.433Z,2.40
2018-09-22T20:36:14.722Z,2.50
2018-09-22T20:38:43.934Z,2.53
2018-09-22T20:41:13.176Z,2.40
2018-09-22T20:43:42.390Z,2.43
2018-09-22T20:46:11.602Z,2.23
2018-09-22T20:48:40.823Z,2.70
2018-09-22T20:51:10.075Z,2.83
2018-09-22T20:53:39.357Z,2.57
2018-09-22T20:56:08.587Z,2.50
2018-09-22T20:58:37.835Z,2.30
2018-09-22T21:01:07.298Z,2.40
2018-09-22T21:06:36.047Z,2.40
2018-09-22T21:09:07.242Z,1.90
2018-09-22T21:11:36.403Z,2.30
2018-09-22T21:14:05.842Z,2.43
2018-09-22T21:16:35.079Z,2.13
2018-09-22T21:19:04.392Z,2.00
2018-09-22T21:21:33.610Z,2.23
2018-09-22T21:24:02.840Z,2.40
2018-09-22T21:26:32.099Z,2.62
2018-09-22T21:29:01.307Z,2.33
2018-09-22T21:31:30.534Z,2.40
2018-09-22T21:33:59.763Z,2.20
2018-09-22T21:36:29.002Z,2.37
2018-09-22T21:38:58.211Z,2.20
2018-09-22T21:41:27.450Z,2.17
2018-09-22T21:43:56.683Z,2.50
2018-09-22T21:46:25.935Z,2.50
2018-09-22T21:48:55.176Z,2.30
2018-09-22T21:51:24.374Z,2.23
2018-09-22T21:53:53.595Z,2.53
2018-09-22T21:56:22.826Z,2.47
2018-09-22T21:58:52.054Z,2.70
2018-09-22T22:01:26.396Z,2.47
2018-09-22T22:03:55.614Z,2.33
2018-09-22T22:06:24.842Z,2.63
2018-09-22T22:08:54.271Z,2.80
2018-09-22T22:11:23.512Z,2.57
2018-09-22T22:13:52.722Z,2.67
2018-09-22T22:16:21.963Z,2.30
2018-09-22T22:18:51.215Z,2.50
2018-09-22T22:21:20.452Z,2.50
2018-09-22T22:23:49.664Z,2.80
2018-09-22T22:26:18.922Z,2.87
2018-09-22T22:28:48.135Z,3.20
2018-09-22T22:31:17.403Z,3.10
2018-09-22T22:33:49.678Z,2.70
2018-09-22T22:36:19.326Z,2.50
2018-09-22T22:38:48.599Z,2.60
2018-09-22T22:41:17.869Z,2.40
2018-09-22T22:43:47.095Z,2.60
2018-09-22T22:46:16.330Z,2.70
2018-09-22T22:48:45.583Z,2.50
2018-09-22T22:51:14.816Z,2.50
2018-09-22T22:53:44.025Z,2.40
2018-09-22T22:56:13.262Z,2.80
2018-09-22T22:58:42.655Z,2.87
2018-09-22T23:01:11.862Z,2.83
2018-09-22T23:03:41.087Z,3.30
2018-09-22T23:06:10.339Z,3.35
2018-09-22T23:08:39.570Z,3.40
2018-09-22T23:11:10.047Z,3.47
2018-09-22T23:13:39.282Z,3.57
2018-09-22T23:16:08.579Z,3.70
2018-09-22T23:18:37.810Z,3.83
2018-09-22T23:21:07.150Z,3.83
2018-09-22T23:23:36.345Z,4.03
2018-09-22T23:26:05.575Z,3.90
2018-09-22T23:28:34.842Z,4.00
2018-09-22T23:31:04.055Z,3.90
2018-09-22T23:33:33.284Z,3.50
2018-09-22T23:36:02.534Z,2.93
2018-09-22T23:38:31.885Z,2.63
2018-09-22T23:41:01.131Z,2.50
2018-09-22T23:43:30.349Z,2.40
2018-09-22T23:45:59.563Z,2.10
2018-09-22T23:48:28.779Z,1.93
2018-09-22T23:50:57.998Z,2.57
2018-09-22T23:53:27.221Z,2.60
2018-09-22T23:55:56.461Z,2.17
2018-09-22T23:58:25.710Z,2.23
